createdAt,value
2022-10-26T00:01:04.412Z,10.70
2022-10-26T00:03:31.225Z,9.80
2022-10-26T00:06:13.290Z,10.40
2022-10-26T00:08:41.188Z,10.60
2022-10-26T00:11:09.123Z,11.10
2022-10-26T00:13:36.927Z,9.90
2022-10-26T00:16:30.217Z,9.70
2022-10-26T00:18:56.981Z,9.30
2022-10-26T00:21:24.071Z,9.80
2022-10-26T00:23:50.827Z,9.40
2022-10-26T00:26:17.539Z,9.60
2022-10-26T00:28:44.246Z,9.40
2022-10-26T00:31:16.716Z,9.40
2022-10-26T00:33:43.913Z,10.10
2022-10-26T00:36:11.244Z,9.20
2022-10-26T00:38:38.346Z,9.90
2022-10-26T00:41:05.368Z,9.50
2022-10-26T00:43:32.010Z,9.70
2022-10-26T00:46:02.816Z,9.40
2022-10-26T00:48:34.624Z,9.70
2022-10-26T00:51:06.275Z,9.40
2022-10-26T00:53:33.278Z,9.20
2022-10-26T00:56:01.433Z,8.40
2022-10-26T00:58:29.159Z,9.50
2022-10-26T01:00:55.966Z,10.20
2022-10-26T01:03:25.683Z,9.40
2022-10-26T01:05:55.909Z,9.70
2022-10-26T01:08:23.425Z,9.80
2022-10-26T01:10:50.855Z,10.10
2022-10-26T01:13:18.441Z,10.50
2022-10-26T01:16:04.090Z,10.00
2022-10-26T01:18:39.942Z,10.30
2022-10-26T01:21:39.894Z,10.10
2022-10-26T01:24:09.567Z,11.00
2022-10-26T01:26:56.535Z,10.90
2022-10-26T01:29:52.689Z,11.20
2022-10-26T01:32:35.258Z,10.70
2022-10-26T01:35:10.709Z,9.70
2022-10-26T01:37:45.663Z,11.20
2022-10-26T01:40:19.066Z,9.80
2022-10-26T01:42:53.561Z,10.10
2022-10-26T01:45:20.473Z,10.00
2022-10-26T01:47:49.580Z,9.60
2022-10-26T01:50:20.143Z,9.10
2022-10-26T01:52:50.880Z,8.80
2022-10-26T01:55:40.023Z,8.90
2022-10-26T01:58:54.579Z,8.90
2022-10-26T02:01:42.765Z,9.00
2022-10-26T02:04:28.447Z,9.60
2022-10-26T02:07:06.074Z,9.30
2022-10-26T02:09:39.313Z,9.50
2022-10-26T02:12:19.697Z,8.80
2022-10-26T02:14:55.472Z,9.50
2022-10-26T02:17:22.186Z,9.30
2022-10-26T02:19:58.230Z,8.60
2022-10-26T02:22:33.463Z,9.00
2022-10-26T02:25:04.680Z,8.10
2022-10-26T02:27:35.607Z,9.30
2022-10-26T02:30:04.998Z,8.90
2022-10-26T02:32:35.788Z,8.60
2022-10-26T02:35:03.918Z,8.80
2022-10-26T02:37:33.315Z,9.00
2022-10-26T02:40:03.209Z,7.50
2022-10-26T02:42:30.584Z,8.00
2022-10-26T02:45:04.166Z,7.30
2022-10-26T02:47:31.473Z,8.40
2022-10-26T02:49:58.421Z,7.80
2022-10-26T02:52:40.439Z,7.80
2022-10-26T02:55:24.406Z,8.10
2022-10-26T02:58:04.662Z,8.50
2022-10-26T03:00:32.319Z,8.20
2022-10-26T03:02:59.932Z,8.20
2022-10-26T03:05:29.027Z,8.00
2022-10-26T03:07:56.218Z,8.10
2022-10-26T03:10:23.238Z,8.20
2022-10-26T03:12:50.205Z,8.40
2022-10-26T03:15:17.224Z,7.40
2022-10-26T03:17:44.095Z,8.30
2022-10-26T03:20:11.865Z,8.00
2022-10-26T03:22:38.832Z,8.10
2022-10-26T03:25:06.167Z,8.40
2022-10-26T03:27:32.967Z,7.80
2022-10-26T03:29:59.633Z,8.20
2022-10-26T03:32:26.239Z,7.80
2022-10-26T03:34:53.028Z,7.30
2022-10-26T03:37:19.723Z,7.00
2022-10-26T03:39:46.376Z,7.60
2022-10-26T03:42:13.124Z,7.90
2022-10-26T03:44:39.825Z,8.40
2022-10-26T03:47:06.607Z,7.80
2022-10-26T03:49:33.336Z,8.10
2022-10-26T03:51:59.987Z,8.00
2022-10-26T03:54:26.682Z,8.60
2022-10-26T03:56:55.215Z,8.20
2022-10-26T03:59:22.287Z,8.20
2022-10-26T04:01:51.633Z,8.20
2022-10-26T04:04:21.175Z,7.80
2022-10-26T04:06:48.067Z,8.00
2022-10-26T04:09:14.756Z,8.40
2022-10-26T04:11:41.439Z,8.30
2022-10-26T04:14:08.149Z,8.10
2022-10-26T04:16:34.845Z,7.80
2022-10-26T04:19:01.806Z,8.40
2022-10-26T04:21:28.526Z,8.00
2022-10-26T04:23:55.160Z,8.30
2022-10-26T04:26:21.972Z,7.00
2022-10-26T04:28:48.641Z,8.10
2022-10-26T04:31:15.299Z,7.80
2022-10-26T04:33:42.082Z,8.40
2022-10-26T04:36:08.896Z,8.80
2022-10-26T04:38:35.539Z,8.20
2022-10-26T04:41:02.241Z,7.80
2022-10-26T04:43:29.028Z,8.50
2022-10-26T04:45:59.138Z,8.20
2022-10-26T04:51:01.461Z,8.60
2022-10-26T04:53:28.789Z,9.00
2022-10-26T04:56:00.301Z,8.30
2022-10-26T04:58:31.096Z,8.30
2022-10-26T05:00:57.905Z,8.90
2022-10-26T05:03:24.671Z,9.10
2022-10-26T05:05:51.382Z,8.50
2022-10-26T05:08:18.004Z,9.20
2022-10-26T05:10:50.176Z,8.90
2022-10-26T05:13:17.150Z,8.40
2022-10-26T05:15:43.899Z,9.00
2022-10-26T05:18:10.597Z,8.80
2022-10-26T05:20:37.770Z,9.60
2022-10-26T05:23:10.735Z,9.70
2022-10-26T05:25:38.455Z,9.80
2022-10-26T05:28:09.722Z,9.40
2022-10-26T05:30:36.492Z,10.50
2022-10-26T05:33:03.598Z,9.80
2022-10-26T05:35:31.516Z,10.00
2022-10-26T05:37:58.508Z,10.30
2022-10-26T05:40:25.857Z,11.80
2022-10-26T05:42:53.065Z,10.00
2022-10-26T05:45:20.311Z,10.20
2022-10-26T05:47:47.516Z,10.00
2022-10-26T05:50:14.744Z,10.40
2022-10-26T05:52:47.285Z,10.60
2022-10-26T05:55:16.445Z,10.60
2022-10-26T05:57:44.154Z,10.60
2022-10-26T06:00:20.687Z,10.90
2022-10-26T06:03:12.496Z,11.20
2022-10-26T06:05:52.773Z,12.30
2022-10-26T06:08:21.239Z,13.60
2022-10-26T06:10:49.034Z,12.50
2022-10-26T06:13:16.788Z,11.60
2022-10-26T06:16:01.914Z,12.20
2022-10-26T06:18:59.549Z,12.50
2022-10-26T06:21:31.409Z,11.80
2022-10-26T06:24:09.173Z,12.50
2022-10-26T06:26:41.756Z,12.90
2022-10-26T06:29:30.395Z,13.50
2022-10-26T06:31:57.157Z,14.90
2022-10-26T06:34:29.689Z,15.70
2022-10-26T06:36:58.567Z,14.60
2022-10-26T06:39:29.938Z,14.20
2022-10-26T06:41:57.662Z,12.90
2022-10-26T06:44:24.756Z,13.30
2022-10-26T06:47:06.066Z,11.70
2022-10-26T06:49:40.109Z,11.30
2022-10-26T06:52:29.762Z,11.60
2022-10-26T06:54:56.923Z,11.20
2022-10-26T06:57:27.106Z,10.90
2022-10-26T06:59:53.950Z,10.70
2022-10-26T07:02:21.411Z,12.50
2022-10-26T07:04:48.581Z,13.20
2022-10-26T07:07:19.385Z,13.70
2022-10-26T07:09:46.186Z,12.50
2022-10-26T07:12:13.200Z,12.00
2022-10-26T07:14:39.913Z,12.20
2022-10-26T07:17:07.304Z,13.60
2022-10-26T07:19:33.991Z,12.60
2022-10-26T07:22:01.385Z,11.60
2022-10-26T07:24:31.529Z,11.00
2022-10-26T07:26:59.305Z,10.70
2022-10-26T07:29:27.527Z,11.20
2022-10-26T08:02:45.358Z,11.10
2022-10-26T08:05:12.116Z,10.40
2022-10-26T08:07:44.494Z,10.60
2022-10-26T08:10:12.183Z,10.30
2022-10-26T08:12:39.020Z,10.40
2022-10-26T08:15:06.641Z,10.00
2022-10-26T08:17:33.561Z,9.60
2022-10-26T08:20:04.222Z,9.60
2022-10-26T08:22:31.064Z,10.40
2022-10-26T08:24:58.144Z,10.50
2022-10-26T08:27:25.271Z,10.50
2022-10-26T08:29:52.030Z,10.60
2022-10-26T08:32:18.904Z,11.00
2022-10-26T08:34:45.636Z,10.70
2022-10-26T08:37:12.444Z,11.30
2022-10-26T08:39:39.216Z,10.80
2022-10-26T08:42:23.198Z,10.80
2022-10-26T08:44:58.674Z,10.20
2022-10-26T08:47:43.386Z,11.80
2022-10-26T08:50:21.900Z,11.00
2022-10-26T08:53:15.001Z,11.80
2022-10-26T08:55:56.938Z,11.60
2022-10-26T08:58:32.339Z,10.60
2022-10-26T09:00:59.701Z,10.90
2022-10-26T09:03:26.420Z,9.90
2022-10-26T09:06:08.539Z,9.80
2022-10-26T09:08:59.026Z,10.40
2022-10-26T09:11:25.702Z,10.40
2022-10-26T09:14:11.746Z,9.90
2022-10-26T09:16:56.215Z,10.50
2022-10-26T09:19:37.991Z,11.50
2022-10-26T09:22:23.230Z,10.80
2022-10-26T09:24:57.577Z,10.50
2022-10-26T09:27:29.806Z,10.10
2022-10-26T09:30:00.523Z,8.70
2022-10-26T09:32:39.003Z,9.00
2022-10-26T09:35:14.463Z,8.80
2022-10-26T09:37:47.503Z,8.40
2022-10-26T09:40:26.728Z,8.20
2022-10-26T09:43:24.820Z,7.40
2022-10-26T09:45:52.995Z,7.50
2022-10-26T09:48:25.921Z,7.70
2022-10-26T09:50:53.208Z,6.50
2022-10-26T09:53:19.952Z,7.70
2022-10-26T09:55:49.426Z,7.70
2022-10-26T09:58:30.129Z,7.60
2022-10-26T10:00:57.152Z,6.60
2022-10-26T10:03:33.585Z,5.90
2022-10-26T10:06:21.080Z,6.20
2022-10-26T10:09:11.823Z,5.60
2022-10-26T10:11:58.094Z,5.40
2022-10-26T10:14:39.820Z,5.00
2022-10-26T10:17:23.661Z,5.30
2022-10-26T10:19:51.345Z,5.20
2022-10-26T10:22:24.863Z,4.40
2022-10-26T10:25:01.670Z,4.30
2022-10-26T10:27:30.054Z,4.30
2022-10-26T10:30:13.842Z,4.10
2022-10-26T10:32:48.250Z,3.60
2022-10-26T10:35:30.566Z,3.60
2022-10-26T10:37:58.020Z,3.40
2022-10-26T10:40:27.890Z,3.20
2022-10-26T10:43:25.648Z,2.40
2022-10-26T10:45:57.201Z,2.30
2022-10-26T10:48:28.837Z,1.80
2022-10-26T10:51:01.523Z,1.70
2022-10-26T10:53:45.544Z,1.90
2022-10-26T10:56:50.039Z,1.40
2022-10-26T10:59:28.640Z,1.20
2022-10-26T11:02:01.080Z,1.40
2022-10-26T11:04:41.000Z,1.30
2022-10-26T11:07:10.044Z,1.60
2022-10-26T11:09:40.711Z,1.40
2022-10-26T11:12:11.756Z,1.40
2022-10-26T11:14:46.322Z,1.60
2022-10-26T11:17:24.351Z,1.70
2022-10-26T11:20:02.785Z,1.60
2022-10-26T11:22:37.180Z,2.10
2022-10-26T11:25:07.875Z,2.60
2022-10-26T11:27:46.709Z,2.60
2022-10-26T11:30:16.628Z,2.20
2022-10-26T11:33:01.254Z,3.90
2022-10-26T11:35:33.392Z,2.30
2022-10-26T11:38:18.105Z,3.60
2022-10-26T11:41:09.616Z,2.30
2022-10-26T11:44:00.949Z,1.70
2022-10-26T11:46:50.360Z,3.20
2022-10-26T11:49:54.082Z,2.00
2022-10-26T11:52:47.828Z,2.10
2022-10-26T11:55:14.722Z,2.20
2022-10-26T11:57:42.345Z,2.70
2022-10-26T12:00:17.433Z,2.50
2022-10-26T12:02:57.167Z,2.10
2022-10-26T12:05:53.097Z,2.10
2022-10-26T12:08:26.252Z,2.60
2022-10-26T12:13:42.741Z,2.40
2022-10-26T12:16:47.818Z,2.90
2022-10-26T12:19:34.463Z,2.10
2022-10-26T12:22:01.782Z,2.50
2022-10-26T12:24:35.663Z,2.80
2022-10-26T12:27:04.892Z,2.90
2022-10-26T12:29:33.158Z,3.10
2022-10-26T12:31:59.868Z,2.30
2022-10-26T12:34:32.776Z,2.70
2022-10-26T12:37:02.340Z,2.70
2022-10-26T12:39:38.005Z,2.90
2022-10-26T12:42:04.631Z,2.60
2022-10-26T12:44:45.768Z,2.90
2022-10-26T12:47:27.827Z,2.70
2022-10-26T12:50:00.894Z,2.70
2022-10-26T12:52:39.831Z,2.70
2022-10-26T12:55:12.931Z,3.20
2022-10-26T12:58:03.684Z,3.30
2022-10-26T13:00:33.280Z,3.00
2022-10-26T13:03:30.517Z,3.70
2022-10-26T13:06:45.855Z,2.60
2022-10-26T13:09:23.556Z,2.30
2022-10-26T13:11:55.092Z,2.80
2022-10-26T13:14:29.525Z,3.00
2022-10-26T13:16:56.478Z,2.80
2022-10-26T13:19:43.523Z,2.70
2022-10-26T13:22:20.862Z,2.40
2022-10-26T13:24:51.872Z,2.30
2022-10-26T13:27:18.530Z,2.50
2022-10-26T13:30:35.189Z,3.80
2022-10-26T13:33:03.391Z,12.00
2022-10-26T13:35:31.775Z,6.00
2022-10-26T13:38:03.017Z,2.70
2022-10-26T13:40:30.423Z,6.20
2022-10-26T13:43:00.561Z,9.30
2022-10-26T13:45:34.721Z,3.10
2022-10-26T13:48:12.145Z,4.30
2022-10-26T13:50:45.708Z,2.60
2022-10-26T13:53:41.525Z,3.00
2022-10-26T13:56:33.323Z,3.10
2022-10-26T13:59:10.681Z,2.60
2022-10-26T14:01:37.659Z,3.00
2022-10-26T14:04:27.837Z,2.90
2022-10-26T14:06:55.053Z,3.50
2022-10-26T14:09:23.042Z,2.40
2022-10-26T14:12:02.062Z,3.00
2022-10-26T14:14:32.318Z,3.30
2022-10-26T14:16:59.936Z,3.00
2022-10-26T14:19:33.412Z,2.60
2022-10-26T14:22:00.717Z,2.60
2022-10-26T14:24:45.650Z,5.00
2022-10-26T14:27:26.618Z,4.10
2022-10-26T14:30:22.015Z,4.20
2022-10-26T14:32:42.171Z,4.50
2022-10-26T14:35:14.065Z,4.20
2022-10-26T14:37:54.467Z,3.60
2022-10-26T14:40:25.387Z,5.60
2022-10-26T14:43:00.780Z,5.90
2022-10-26T14:45:49.365Z,6.40
2022-10-26T14:48:31.486Z,8.80
2022-10-26T14:50:59.839Z,12.70
2022-10-26T14:53:35.990Z,12.00
2022-10-26T14:56:05.490Z,10.90
2022-10-26T14:58:34.084Z,10.10
2022-10-26T15:01:22.886Z,6.00
2022-10-26T15:03:54.831Z,6.00
2022-10-26T15:06:27.831Z,5.80
2022-10-26T15:08:59.595Z,5.40
2022-10-26T15:11:34.761Z,19.20
2022-10-26T15:14:03.246Z,15.40
2022-10-26T15:16:40.993Z,8.60
2022-10-26T15:19:15.208Z,9.10
2022-10-26T15:21:48.453Z,11.40
2022-10-26T15:24:21.316Z,11.40
2022-10-26T15:26:48.631Z,13.00
2022-10-26T15:29:38.529Z,14.00
2022-10-26T15:32:18.989Z,17.80
2022-10-26T15:35:20.127Z,12.10
2022-10-26T15:37:47.702Z,9.00
2022-10-26T15:40:15.650Z,8.70
2022-10-26T15:42:45.576Z,8.60
2022-10-26T15:45:25.211Z,8.80
2022-10-26T15:47:54.811Z,7.90
2022-10-26T15:50:24.425Z,7.60
2022-10-26T15:52:58.902Z,8.50
2022-10-26T15:55:25.851Z,8.70
2022-10-26T15:57:53.155Z,8.90
2022-10-26T16:00:20.857Z,11.40
2022-10-26T16:02:47.641Z,11.20
2022-10-26T16:05:16.396Z,11.80
2022-10-26T16:07:46.153Z,12.00
2022-10-26T16:10:17.393Z,13.00
2022-10-26T16:12:44.280Z,14.80
2022-10-26T16:15:17.936Z,14.00
2022-10-26T16:17:45.801Z,15.70
2022-10-26T16:20:30.789Z,16.30
2022-10-26T16:23:00.388Z,13.20
2022-10-26T16:25:27.889Z,13.50
2022-10-26T16:27:55.426Z,15.10
2022-10-26T16:30:24.873Z,16.60
2022-10-26T16:32:55.232Z,15.60
2022-10-26T16:35:22.077Z,15.60
2022-10-26T16:37:49.233Z,15.70
2022-10-26T16:40:16.090Z,17.00
2022-10-26T16:42:45.149Z,18.30
2022-10-26T16:45:13.593Z,15.20
2022-10-26T16:47:41.322Z,15.00
2022-10-26T16:50:11.441Z,13.40
2022-10-26T16:52:39.149Z,12.80
2022-10-26T16:55:10.183Z,11.60
2022-10-26T16:57:37.622Z,11.00
2022-10-26T17:00:09.309Z,11.80
2022-10-26T17:02:36.156Z,10.40
2022-10-26T17:05:06.983Z,10.40
2022-10-26T17:07:35.491Z,10.10
2022-10-26T17:10:02.892Z,10.10
2022-10-26T17:12:30.970Z,9.40
2022-10-26T17:14:59.343Z,9.80
2022-10-26T17:17:27.143Z,10.40
2022-10-26T17:19:54.081Z,11.80
2022-10-26T17:22:21.425Z,10.20
2022-10-26T17:24:49.307Z,9.00
2022-10-26T17:27:19.286Z,10.30
2022-10-26T17:29:52.849Z,10.00
2022-10-26T17:32:20.109Z,11.70
2022-10-26T17:34:47.395Z,11.30
2022-10-26T17:37:14.773Z,10.60
2022-10-26T17:39:41.903Z,11.60
2022-10-26T17:42:09.844Z,11.60
2022-10-26T17:44:39.540Z,12.20
2022-10-26T17:47:07.073Z,13.00
2022-10-26T17:49:36.186Z,12.40
2022-10-26T17:52:04.437Z,12.20
2022-10-26T17:54:31.752Z,11.80
2022-10-26T17:56:59.492Z,11.30
2022-10-26T17:59:26.924Z,11.40
2022-10-26T18:01:53.877Z,11.10
2022-10-26T18:04:22.394Z,10.10
2022-10-26T18:06:50.542Z,10.40
2022-10-26T18:09:17.955Z,10.50
2022-10-26T18:11:45.677Z,11.00
2022-10-26T18:14:14.539Z,10.80
2022-10-26T18:16:41.298Z,9.90
2022-10-26T18:19:08.583Z,9.40
2022-10-26T18:21:39.818Z,10.00
2022-10-26T18:24:08.978Z,8.90
2022-10-26T18:26:36.069Z,9.50
2022-10-26T18:29:04.723Z,8.90
2022-10-26T18:31:33.714Z,7.90
2022-10-26T18:34:03.484Z,7.90
2022-10-26T18:36:33.272Z,7.90
2022-10-26T18:39:01.546Z,8.40
2022-10-26T18:41:29.454Z,8.30
2022-10-26T18:44:00.347Z,8.90
2022-10-26T18:46:30.121Z,10.00
2022-10-26T18:48:59.187Z,9.90
2022-10-26T18:51:31.233Z,8.70
2022-10-26T18:53:58.758Z,8.90
2022-10-26T18:56:28.906Z,9.70
2022-10-26T18:59:01.383Z,10.60
2022-10-26T19:01:32.703Z,11.80
2022-10-26T19:04:05.941Z,12.50
2022-10-26T19:06:45.623Z,12.40
2022-10-26T19:09:13.687Z,11.90
2022-10-26T19:11:43.013Z,11.70
2022-10-26T19:14:11.263Z,11.30
2022-10-26T19:16:47.607Z,10.30
2022-10-26T19:19:18.299Z,10.10
2022-10-26T19:21:47.794Z,9.70
2022-10-26T19:24:17.935Z,10.90
2022-10-26T19:26:45.856Z,11.10
2022-10-26T19:29:16.330Z,11.00
2022-10-26T19:31:45.670Z,10.60
2022-10-26T19:34:15.100Z,11.40
2022-10-26T19:36:45.618Z,13.40
2022-10-26T19:39:14.984Z,13.40
2022-10-26T19:41:41.985Z,14.40
2022-10-26T19:44:11.881Z,15.10
2022-10-26T19:46:40.356Z,15.60
2022-10-26T19:49:08.385Z,17.00
2022-10-26T19:51:35.849Z,18.90
2022-10-26T19:54:06.287Z,19.90
2022-10-26T19:56:35.442Z,20.40
2022-10-26T19:59:02.991Z,19.50
2022-10-26T20:01:30.408Z,20.10
2022-10-26T20:03:57.987Z,19.90
2022-10-26T20:06:25.381Z,21.30
2022-10-26T20:08:52.225Z,19.90
2022-10-26T20:11:19.972Z,19.70
2022-10-26T20:13:48.732Z,20.40
2022-10-26T20:16:18.143Z,18.80
2022-10-26T20:18:48.133Z,19.80
2022-10-26T20:21:17.685Z,19.00
2022-10-26T20:23:45.509Z,19.00
2022-10-26T20:26:19.819Z,18.80
2022-10-26T20:28:51.567Z,17.80
2022-10-26T20:31:20.103Z,16.80
2022-10-26T20:33:51.578Z,17.50
2022-10-26T20:36:18.919Z,17.30
2022-10-26T20:38:46.575Z,17.40
2022-10-26T20:41:13.996Z,18.30
2022-10-26T20:43:41.435Z,17.20
2022-10-26T20:46:27.637Z,17.20
2022-10-26T20:48:54.819Z,15.50
2022-10-26T20:51:37.806Z,12.80
2022-10-26T20:54:15.510Z,10.30
2022-10-26T20:56:42.990Z,9.00
2022-10-26T20:59:28.583Z,7.40
2022-10-26T21:01:55.542Z,7.40
2022-10-26T21:04:22.439Z,7.40
2022-10-26T21:06:49.120Z,8.10
2022-10-26T21:09:15.898Z,8.00
2022-10-26T21:11:43.387Z,9.40
2022-10-26T21:14:10.093Z,7.90
2022-10-26T21:16:37.213Z,7.60
2022-10-26T21:19:05.192Z,7.80
2022-10-26T21:21:31.851Z,7.60
2022-10-26T21:23:58.569Z,7.60
2022-10-26T21:26:25.342Z,7.80
2022-10-26T21:28:52.055Z,8.30
2022-10-26T21:31:21.433Z,8.70
2022-10-26T21:33:48.847Z,9.50
2022-10-26T21:36:16.569Z,9.50
2022-10-26T21:38:45.725Z,9.60
2022-10-26T21:41:17.669Z,9.40
2022-10-26T21:43:48.036Z,10.50
2022-10-26T21:46:16.295Z,10.60
2022-10-26T21:48:43.224Z,11.30
2022-10-26T21:51:18.641Z,11.20
2022-10-26T21:53:45.451Z,11.30
2022-10-26T21:56:21.328Z,11.80
2022-10-26T21:58:48.758Z,11.30
2022-10-26T22:01:22.965Z,11.10
2022-10-26T22:03:49.694Z,10.20
2022-10-26T22:08:47.925Z,11.30
2022-10-26T22:11:20.413Z,10.00
2022-10-26T22:13:48.770Z,9.30
2022-10-26T22:16:25.155Z,8.80
2022-10-26T22:18:54.018Z,9.30
2022-10-26T22:21:22.375Z,8.80
2022-10-26T22:23:49.210Z,9.10
2022-10-26T22:26:18.427Z,8.90
2022-10-26T22:28:47.076Z,8.60
2022-10-26T22:31:16.919Z,8.50
2022-10-26T22:33:44.351Z,7.90
2022-10-26T22:36:14.031Z,8.00
2022-10-26T22:38:41.011Z,7.90
2022-10-26T22:41:08.721Z,7.90
2022-10-26T22:43:35.921Z,8.90
2022-10-26T22:46:16.502Z,8.80
2022-10-26T22:48:45.568Z,9.50
2022-10-26T22:51:19.866Z,9.70
2022-10-26T22:53:47.397Z,9.70
2022-10-26T22:56:14.519Z,11.70
2022-10-26T22:58:41.518Z,10.80
2022-10-26T23:01:14.621Z,10.30
2022-10-26T23:03:41.857Z,9.70
2022-10-26T23:06:17.133Z,8.80
2022-10-26T23:08:44.528Z,8.70
2022-10-26T23:11:14.190Z,8.60
2022-10-26T23:13:41.071Z,9.00
2022-10-26T23:16:10.651Z,8.60
2022-10-26T23:18:37.816Z,8.40
2022-10-26T23:21:06.643Z,8.90
2022-10-26T23:23:33.574Z,9.00
2022-10-26T23:26:07.050Z,8.40
2022-10-26T23:28:35.344Z,8.40
2022-10-26T23:31:02.585Z,8.50
2022-10-26T23:33:29.473Z,7.30
2022-10-26T23:35:57.671Z,7.20
2022-10-26T23:38:25.554Z,7.20
2022-10-26T23:40:54.632Z,7.00
2022-10-26T23:43:21.838Z,7.10
2022-10-26T23:45:48.897Z,7.30
2022-10-26T23:48:16.410Z,7.70
2022-10-26T23:50:44.352Z,7.60
2022-10-26T23:53:12.580Z,7.90
2022-10-26T23:55:40.100Z,7.60
2022-10-26T23:58:07.003Z,7.40
